ěÝzenÝ letovÚho provozu ╚eskÚ republiky
Letiste: LKPD Aktualizace: 07.07.2020 16:31:25  UTC
 METAR LKPD 07.07. 16:30 ...
METAR LKPD 071630Z 28008KT CAVOK 19/07 Q1018 NOSIG RMK BLU BLU=
 TAF LKPD 07.07. 11:00 ...
TAF LKPD 071100Z 0712/0812 30008KT CAVOK      TEMPO 0712/0715 30013KT SCT040      PROB30 TEMPO 0712/0715 SHRA SCT035TCU      BECMG 0717/0719 20006KT      TEMPO 0717/0722 VRB02KT      BECMG 0802/0805 28006KT      TEMPO 0807/0810 SCT030=